Time;durP1;ratioP1;P1;durP2;ratioP2;P2;SDS_P1;SDS_P2;PMS_P1;PMS_P2;Temp;Humidity;BMP_temperature;BMP_pressure;BME280_temperature;BME280_humidity;BME280_pressure;Samples;Min_cycle;Max_cycle;Signal;HPM_P1;HPM_P2
2021/08/02 00:02:36;;;;;;;3.87;3.50;;;;;;;;;;5054010;28;20470;-60
2021/08/02 00:05:04;;;;;;;4.50;3.60;;;;;;;;;;5054693;28;20895;-60
2021/08/02 00:07:32;;;;;;;5.40;3.37;;;;;;;;;;5053567;28;20456;-60
2021/08/02 00:10:05;;;;;;;2.93;2.63;;;;;;;;;;5054013;28;20486;-60
2021/08/02 00:12:33;;;;;;;4.10;3.70;;;;;;;;;;5053816;28;20471;-60
2021/08/02 00:14:58;;;;;;;3.70;3.40;;;;;;;;;;5053101;28;20518;-59
2021/08/02 00:17:25;;;;;;;4.30;3.83;;;;;;;;;;5053475;28;20459;-59
2021/08/02 00:19:52;;;;;;;5.43;3.43;;;;;;;;;;5054491;28;20232;-60
2021/08/02 00:22:17;;;;;;;4.20;3.90;;;;;;;;;;5052709;28;20463;-59
2021/08/02 00:24:43;;;;;;;4.03;3.73;;;;;;;;;;5053409;28;20788;-60
2021/08/02 00:27:08;;;;;;;3.93;3.43;;;;;;;;;;5053368;28;20303;-59
2021/08/02 00:29:34;;;;;;;3.33;3.13;;;;;;;;;;5053597;28;20705;-60
2021/08/02 00:32:01;;;;;;;4.60;4.13;;;;;;;;;;5046767;28;20255;-59
2021/08/02 00:34:27;;;;;;;3.60;3.30;;;;;;;;;;5052621;28;20530;-60
2021/08/02 00:36:56;;;;;;;4.23;3.93;;;;;;;;;;5054232;28;20472;-59
2021/08/02 00:39:26;;;;;;;5.80;3.80;;;;;;;;;;5053779;28;20225;-60
2021/08/02 00:42:32;;;;;;;3.90;3.40;;;;;;;;;;5052624;28;20459;-60
2021/08/02 00:45:13;;;;;;;4.93;3.80;;;;;;;;;;5038655;28;20981;-60
2021/08/02 00:47:45;;;;;;;4.50;4.10;;;;;;;;;;5053223;28;21090;-59
2021/08/02 00:50:21;;;;;;;4.10;3.80;;;;;;;;;;5052995;28;20982;-60
2021/08/02 00:53:00;;;;;;;4.00;3.60;;;;;;;;;;5053786;28;20528;-59
2021/08/02 00:55:28;;;;;;;4.60;3.67;;;;;;;;;;5052962;28;20535;-60
2021/08/02 00:57:56;;;;;;;5.70;3.83;;;;;;;;;;5053393;28;20475;-60
2021/08/02 01:00:21;;;;;;;3.70;3.40;;;;;;;;;;5053135;28;20435;-60
2021/08/02 01:02:51;;;;;;;4.43;4.00;;;;;;;;;;5053106;28;20455;-58
2021/08/02 01:05:16;;;;;;;4.53;4.13;;;;;;;;;;5052562;28;20231;-60
2021/08/02 01:07:46;;;;;;;4.50;3.90;;;;;;;;;;5053676;28;20460;-60
2021/08/02 01:10:13;;;;;;;5.07;4.37;;;;;;;;;;5053179;28;20224;-60
2021/08/02 01:12:42;;;;;;;3.90;3.50;;;;;;;;;;5052553;28;20495;-59
2021/08/02 01:15:08;;;;;;;4.50;3.80;;;;;;;;;;5053225;28;20501;-59
2021/08/02 01:17:33;;;;;;;4.50;4.13;;;;;;;;;;5053616;28;20548;-60
2021/08/02 01:20:00;;;;;;;4.13;3.83;;;;;;;;;;5052940;28;20224;-59
2021/08/02 01:22:29;;;;;;;4.37;4.00;;;;;;;;;;5051872;28;20597;-59
2021/08/02 01:24:54;;;;;;;4.67;4.10;;;;;;;;;;5053680;28;20468;-60
2021/08/02 01:27:43;;;;;;;4.60;3.80;;;;;;;;;;5052638;28;20463;-59
2021/08/02 01:30:19;;;;;;;3.77;3.50;;;;;;;;;;5052778;28;20229;-59
2021/08/02 01:32:46;;;;;;;4.77;4.40;;;;;;;;;;5053689;28;20463;-59
2021/08/02 01:35:13;;;;;;;4.10;3.80;;;;;;;;;;5052486;28;20466;-60
2021/08/02 01:37:39;;;;;;;4.70;4.30;;;;;;;;;;5053146;28;20458;-60
2021/08/02 01:40:05;;;;;;;7.03;3.90;;;;;;;;;;5053797;28;20464;-61
2021/08/02 01:42:30;;;;;;;5.43;3.40;;;;;;;;;;5052941;28;20460;-60
2021/08/02 01:44:55;;;;;;;3.77;3.47;;;;;;;;;;5052737;28;20497;-60
2021/08/02 01:47:37;;;;;;;6.80;4.60;;;;;;;;;;5053005;28;20213;-60
2021/08/02 01:50:23;;;;;;;3.70;3.40;;;;;;;;;;5052044;28;20209;-60
2021/08/02 01:53:00;;;;;;;4.90;4.00;;;;;;;;;;5051033;28;20460;-60
2021/08/02 01:55:25;;;;;;;4.37;3.60;;;;;;;;;;5052458;28;20459;-60
2021/08/02 01:58:00;;;;;;;4.90;3.70;;;;;;;;;;5051667;28;20522;-60
2021/08/02 02:00:27;;;;;;;4.40;3.63;;;;;;;;;;5052581;28;20240;-59
2021/08/02 02:03:02;;;;;;;5.50;3.17;;;;;;;;;;5051553;28;20581;-60
2021/08/02 02:05:32;;;;;;;4.57;3.47;;;;;;;;;;5054957;28;20817;-60
2021/08/02 02:08:13;;;;;;;4.10;3.53;;;;;;;;;;5054939;28;20786;-59
2021/08/02 02:10:41;;;;;;;3.80;3.40;;;;;;;;;;5056767;28;20463;-59
2021/08/02 02:13:11;;;;;;;3.83;3.10;;;;;;;;;;5055432;28;20475;-58
2021/08/02 02:15:38;;;;;;;3.63;3.30;;;;;;;;;;5055364;28;20543;-60
2021/08/02 02:18:04;;;;;;;3.37;2.90;;;;;;;;;;5055254;28;20542;-60
2021/08/02 02:20:32;;;;;;;2.83;2.63;;;;;;;;;;5056893;28;20524;-60
2021/08/02 02:22:57;;;;;;;3.53;3.07;;;;;;;;;;5056052;28;20367;-60
2021/08/02 02:25:23;;;;;;;3.33;3.03;;;;;;;;;;5055943;28;20943;-60
2021/08/02 02:27:48;;;;;;;3.67;3.37;;;;;;;;;;5055486;28;20220;-59
2021/08/02 02:30:13;;;;;;;3.40;2.80;;;;;;;;;;5056246;28;20687;-59
2021/08/02 02:32:39;;;;;;;5.20;2.80;;;;;;;;;;5054692;28;20259;-59
2021/08/02 02:35:06;;;;;;;3.40;3.10;;;;;;;;;;5056171;28;20294;-59
2021/08/02 02:37:32;;;;;;;3.40;3.10;;;;;;;;;;5055570;28;20213;-60
2021/08/02 02:39:57;;;;;;;3.60;3.30;;;;;;;;;;5055971;28;20452;-60
2021/08/02 02:42:24;;;;;;;2.90;2.60;;;;;;;;;;5056185;28;20467;-60
2021/08/02 02:44:50;;;;;;;3.30;3.00;;;;;;;;;;5055233;28;20632;-59
2021/08/02 02:47:15;;;;;;;3.40;3.00;;;;;;;;;;5054694;28;20518;-61
2021/08/02 02:49:41;;;;;;;4.70;2.80;;;;;;;;;;5055848;28;20787;-60
2021/08/02 02:52:07;;;;;;;3.30;3.00;;;;;;;;;;5055792;28;20224;-59
2021/08/02 02:54:33;;;;;;;3.67;2.77;;;;;;;;;;5054815;28;20282;-59
2021/08/02 02:56:58;;;;;;;3.50;3.20;;;;;;;;;;5055214;28;20649;-58
2021/08/02 02:59:24;;;;;;;5.47;2.70;;;;;;;;;;5055132;28;20264;-60
2021/08/02 03:01:51;;;;;;;3.97;3.50;;;;;;;;;;5055411;28;20232;-60
2021/08/02 03:04:19;;;;;;;5.33;3.37;;;;;;;;;;5055602;28;20573;-59
2021/08/02 03:06:45;;;;;;;3.27;3.00;;;;;;;;;;5054815;28;20520;-60
2021/08/02 03:09:11;;;;;;;4.10;3.00;;;;;;;;;;5055374;28;20455;-60
2021/08/02 03:11:37;;;;;;;3.70;3.23;;;;;;;;;;5053962;28;20460;-60
2021/08/02 03:14:02;;;;;;;2.73;2.53;;;;;;;;;;5054036;28;20573;-59
2021/08/02 03:16:28;;;;;;;3.60;3.30;;;;;;;;;;5053728;28;20224;-60
2021/08/02 03:18:53;;;;;;;6.57;3.70;;;;;;;;;;5055091;28;20220;-60
2021/08/02 03:21:20;;;;;;;4.70;3.87;;;;;;;;;;5054935;28;20308;-60
2021/08/02 03:24:15;;;;;;;4.83;4.00;;;;;;;;;;5055554;28;20217;-60
2021/08/02 03:26:47;;;;;;;4.10;3.77;;;;;;;;;;5054134;28;20479;-60
2021/08/02 03:29:19;;;;;;;4.70;3.43;;;;;;;;;;5053977;28;20844;-59
2021/08/02 03:31:55;;;;;;;4.27;3.50;;;;;;;;;;5055093;28;20471;-60
2021/08/02 03:34:27;;;;;;;5.67;3.50;;;;;;;;;;5054132;28;20562;-60
2021/08/02 03:36:53;;;;;;;5.30;3.40;;;;;;;;;;5054395;28;20508;-60
2021/08/02 03:39:19;;;;;;;3.53;3.23;;;;;;;;;;5056136;28;20794;-60
2021/08/02 03:41:45;;;;;;;3.43;3.10;;;;;;;;;;5051334;28;20474;-59
2021/08/02 03:44:13;;;;;;;3.57;3.27;;;;;;;;;;5052329;28;20475;-60
2021/08/02 03:46:42;;;;;;;4.90;3.40;;;;;;;;;;5053490;28;20723;-60
2021/08/02 03:49:08;;;;;;;4.10;3.70;;;;;;;;;;5037524;28;20938;-59
2021/08/02 03:51:46;;;;;;;4.40;3.50;;;;;;;;;;5053850;28;20471;-60
2021/08/02 03:54:12;;;;;;;3.30;3.00;;;;;;;;;;5054780;28;20459;-59
2021/08/02 03:56:38;;;;;;;3.30;3.00;;;;;;;;;;5054526;28;20490;-60
2021/08/02 03:59:04;;;;;;;4.30;2.97;;;;;;;;;;5053395;28;20476;-60
2021/08/02 04:01:36;;;;;;;3.80;2.90;;;;;;;;;;5054118;28;20551;-60
2021/08/02 04:04:01;;;;;;;4.17;3.10;;;;;;;;;;5053415;28;20218;-61
2021/08/02 04:06:26;;;;;;;3.23;2.93;;;;;;;;;;5054319;28;20459;-60
2021/08/02 04:08:52;;;;;;;2.63;2.43;;;;;;;;;;5053739;28;20296;-60
2021/08/02 04:11:17;;;;;;;3.10;2.80;;;;;;;;;;5054536;28;20225;-59
2021/08/02 04:13:42;;;;;;;2.80;2.60;;;;;;;;;;5054159;28;20315;-60
2021/08/02 04:16:08;;;;;;;5.33;2.90;;;;;;;;;;5053832;28;20538;-58
2021/08/02 04:18:33;;;;;;;3.30;2.40;;;;;;;;;;5054559;28;20307;-59
2021/08/02 04:20:58;;;;;;;3.57;3.20;;;;;;;;;;5054189;28;20329;-60
2021/08/02 04:23:23;;;;;;;3.23;2.67;;;;;;;;;;5053867;28;20255;-59
2021/08/02 04:25:49;;;;;;;5.00;2.97;;;;;;;;;;5053679;28;20564;-59
2021/08/02 04:28:14;;;;;;;3.70;2.93;;;;;;;;;;5054186;28;20279;-60
2021/08/02 04:30:39;;;;;;;4.00;2.80;;;;;;;;;;5053637;28;20227;-61
2021/08/02 04:33:04;;;;;;;5.47;3.20;;;;;;;;;;5053603;28;20704;-60
2021/08/02 04:35:30;;;;;;;4.70;3.13;;;;;;;;;;5054180;28;20221;-60
2021/08/02 04:37:55;;;;;;;2.83;2.40;;;;;;;;;;5055168;28;20661;-60
2021/08/02 04:40:20;;;;;;;3.07;2.37;;;;;;;;;;5053499;28;20213;-59
2021/08/02 04:42:45;;;;;;;3.23;2.70;;;;;;;;;;5053265;28;20221;-60
2021/08/02 04:45:11;;;;;;;5.70;2.50;;;;;;;;;;5054301;28;20228;-60
2021/08/02 04:47:36;;;;;;;3.07;2.77;;;;;;;;;;5053495;28;20225;-59
2021/08/02 04:50:02;;;;;;;4.60;2.37;;;;;;;;;;5053015;28;20232;-60
2021/08/02 04:52:27;;;;;;;3.70;2.63;;;;;;;;;;5054054;28;20307;-60
2021/08/02 04:54:53;;;;;;;3.70;2.40;;;;;;;;;;5053265;28;20213;-60
2021/08/02 04:57:18;;;;;;;26.80;21.00;;;;;;;;;;5053396;28;20308;-60
2021/08/02 04:59:43;;;;;;;20.00;13.37;;;;;;;;;;5053452;28;20298;-59
2021/08/02 05:02:09;;;;;;;10.07;7.30;;;;;;;;;;5053630;28;20303;-59
2021/08/02 05:04:34;;;;;;;16.57;13.63;;;;;;;;;;5053008;28;20243;-59
2021/08/02 05:06:59;;;;;;;19.97;13.77;;;;;;;;;;5053525;28;20737;-60
2021/08/02 05:09:25;;;;;;;14.87;13.07;;;;;;;;;;5053738;28;20213;-61
2021/08/02 05:11:53;;;;;;;14.10;9.60;;;;;;;;;;5052296;28;20256;-59
2021/08/02 05:14:19;;;;;;;12.23;9.43;;;;;;;;;;5053620;28;20213;-59
2021/08/02 05:16:44;;;;;;;23.13;18.87;;;;;;;;;;5053418;28;20477;-60
2021/08/02 05:19:10;;;;;;;19.40;16.00;;;;;;;;;;5053325;28;20217;-59
2021/08/02 05:21:35;;;;;;;11.63;8.37;;;;;;;;;;5053233;28;20252;-60
2021/08/02 05:24:01;;;;;;;20.20;15.70;;;;;;;;;;5053558;28;20476;-59
2021/08/02 05:26:27;;;;;;;28.27;23.57;;;;;;;;;;5053389;28;20544;-60
2021/08/02 05:28:52;;;;;;;13.57;11.10;;;;;;;;;;5052935;28;20221;-59
2021/08/02 05:31:17;;;;;;;19.33;15.00;;;;;;;;;;5053735;28;20935;-58
2021/08/02 05:33:43;;;;;;;12.20;10.33;;;;;;;;;;5053078;28;20229;-60
2021/08/02 05:36:08;;;;;;;18.43;12.37;;;;;;;;;;5052989;28;20213;-60
2021/08/02 05:38:33;;;;;;;13.10;10.37;;;;;;;;;;5055352;28;20585;-59
2021/08/02 05:40:59;;;;;;;12.30;9.03;;;;;;;;;;5055103;28;20228;-60
2021/08/02 05:43:25;;;;;;;12.00;9.30;;;;;;;;;;5056971;28;20244;-60
2021/08/02 05:45:50;;;;;;;9.10;7.40;;;;;;;;;;5056823;28;20961;-60
2021/08/02 05:48:16;;;;;;;10.03;8.00;;;;;;;;;;5056757;28;20555;-60
2021/08/02 05:50:41;;;;;;;32.37;23.37;;;;;;;;;;5056941;28;20619;-60
2021/08/02 05:53:06;;;;;;;20.00;16.37;;;;;;;;;;5056644;28;20224;-60
2021/08/02 05:55:31;;;;;;;17.23;15.13;;;;;;;;;;5057684;28;20278;-63
2021/08/02 05:57:57;;;;;;;12.00;10.30;;;;;;;;;;5056969;28;20232;-61
2021/08/02 06:00:23;;;;;;;26.10;19.80;;;;;;;;;;5056579;28;20279;-60
2021/08/02 06:02:48;;;;;;;28.90;24.23;;;;;;;;;;5056687;28;20307;-60
2021/08/02 06:05:13;;;;;;;21.93;19.13;;;;;;;;;;5057263;28;20762;-60
2021/08/02 06:07:42;;;;;;;15.57;13.70;;;;;;;;;;5056511;28;20201;-60
2021/08/02 06:10:08;;;;;;;15.80;14.10;;;;;;;;;;5056350;28;20217;-60
2021/08/02 06:12:34;;;;;;;12.73;10.07;;;;;;;;;;5056888;28;20965;-60
2021/08/02 06:14:59;;;;;;;19.23;12.70;;;;;;;;;;5056433;28;20542;-60
2021/08/02 06:17:24;;;;;;;21.43;13.57;;;;;;;;;;5056505;28;20588;-60
2021/08/02 06:19:49;;;;;;;13.77;11.53;;;;;;;;;;5056461;28;20302;-60
2021/08/02 06:22:15;;;;;;;9.90;8.33;;;;;;;;;;5056750;28;20656;-59
2021/08/02 06:24:42;;;;;;;12.87;11.30;;;;;;;;;;5056203;28;20289;-60
2021/08/02 06:27:07;;;;;;;10.97;8.90;;;;;;;;;;5056354;28;20221;-61
2021/08/02 06:29:33;;;;;;;13.30;9.17;;;;;;;;;;5056768;28;20459;-60
2021/08/02 06:31:58;;;;;;;10.30;9.03;;;;;;;;;;5055525;28;20559;-60
2021/08/02 06:34:23;;;;;;;9.27;7.20;;;;;;;;;;5056457;28;20700;-59
2021/08/02 06:36:49;;;;;;;10.30;6.77;;;;;;;;;;5056511;28;20304;-58
2021/08/02 06:39:14;;;;;;;8.27;6.33;;;;;;;;;;5057609;28;20227;-59
2021/08/02 06:41:39;;;;;;;5.83;3.90;;;;;;;;;;5055921;28;20229;-60
2021/08/02 06:44:05;;;;;;;7.70;6.90;;;;;;;;;;5055908;28;20216;-60
2021/08/02 06:46:30;;;;;;;7.43;4.57;;;;;;;;;;5056173;28;20205;-60
2021/08/02 06:48:55;;;;;;;6.23;5.10;;;;;;;;;;5055423;28;20220;-61
2021/08/02 06:51:20;;;;;;;4.60;3.63;;;;;;;;;;5056226;28;20300;-60
2021/08/02 06:53:46;;;;;;;5.83;4.70;;;;;;;;;;5055966;28;20544;-60
2021/08/02 06:56:11;;;;;;;5.87;4.30;;;;;;;;;;5055491;28;20220;-59
2021/08/02 06:58:36;;;;;;;8.03;4.10;;;;;;;;;;5056119;28;20411;-60
2021/08/02 07:01:01;;;;;;;4.60;2.60;;;;;;;;;;5060463;28;20278;-60
2021/08/02 07:03:27;;;;;;;5.93;2.90;;;;;;;;;;5055004;28;20221;-60
2021/08/02 07:05:52;;;;;;;3.83;2.93;;;;;;;;;;5055203;28;20221;-61
2021/08/02 07:08:19;;;;;;;4.77;2.60;;;;;;;;;;5055847;28;20266;-60
2021/08/02 07:10:44;;;;;;;4.00;3.03;;;;;;;;;;5055482;28;20227;-60
2021/08/02 07:13:10;;;;;;;7.13;3.10;;;;;;;;;;5054712;28;20531;-59
2021/08/02 07:15:35;;;;;;;3.40;2.60;;;;;;;;;;5055879;28;20259;-60
2021/08/02 07:18:00;;;;;;;6.30;2.30;;;;;;;;;;5055110;28;20209;-60
2021/08/02 07:20:25;;;;;;;3.87;2.80;;;;;;;;;;5054964;28;20717;-61
2021/08/02 07:22:51;;;;;;;7.80;2.30;;;;;;;;;;5054974;28;20225;-60
2021/08/02 07:25:17;;;;;;;2.90;2.10;;;;;;;;;;5055878;28;20592;-60
2021/08/02 07:27:42;;;;;;;4.43;2.13;;;;;;;;;;5054911;28;20718;-60
2021/08/02 07:30:09;;;;;;;3.50;2.50;;;;;;;;;;5054837;28;20262;-61
2021/08/02 07:32:34;;;;;;;6.60;2.80;;;;;;;;;;5054324;28;20209;-60
2021/08/02 07:34:59;;;;;;;2.70;2.50;;;;;;;;;;5054534;28;20788;-59
2021/08/02 07:37:24;;;;;;;3.80;1.93;;;;;;;;;;5054619;28;20217;-60
2021/08/02 07:39:50;;;;;;;3.73;2.20;;;;;;;;;;5056643;28;20339;-61
2021/08/02 07:42:15;;;;;;;2.70;2.00;;;;;;;;;;5055045;28;20602;-60
2021/08/02 07:44:40;;;;;;;4.43;2.17;;;;;;;;;;5054145;28;20278;-60
2021/08/02 07:47:05;;;;;;;4.03;2.20;;;;;;;;;;5055080;28;20298;-61
2021/08/02 07:49:31;;;;;;;4.70;2.13;;;;;;;;;;5055114;28;20217;-60
2021/08/02 07:51:56;;;;;;;3.30;2.10;;;;;;;;;;5053853;28;20578;-60
2021/08/02 07:54:21;;;;;;;3.20;2.10;;;;;;;;;;5054928;28;20297;-60
2021/08/02 07:56:46;;;;;;;2.97;1.73;;;;;;;;;;5055168;28;20569;-61
2021/08/02 07:59:12;;;;;;;2.63;2.00;;;;;;;;;;5053918;28;20287;-60
2021/08/02 08:01:37;;;;;;;3.40;1.90;;;;;;;;;;5054439;28;20216;-60
2021/08/02 08:04:02;;;;;;;2.10;1.67;;;;;;;;;;5053885;28;20296;-60
2021/08/02 08:06:28;;;;;;;3.40;1.70;;;;;;;;;;5054613;28;20649;-61
2021/08/02 08:08:53;;;;;;;3.73;1.97;;;;;;;;;;5053907;28;20213;-61
2021/08/02 08:11:18;;;;;;;1.80;1.70;;;;;;;;;;5054684;28;20633;-60
2021/08/02 08:13:44;;;;;;;2.67;1.90;;;;;;;;;;5053481;28;20237;-60
2021/08/02 08:16:09;;;;;;;7.10;2.40;;;;;;;;;;5053855;28;20217;-60
2021/08/02 08:18:34;;;;;;;3.27;1.93;;;;;;;;;;5054549;28;20296;-60
2021/08/02 08:21:00;;;;;;;2.67;1.90;;;;;;;;;;5054401;28;20225;-61
2021/08/02 08:23:26;;;;;;;5.50;2.47;;;;;;;;;;5053128;28;20221;-60
2021/08/02 08:25:52;;;;;;;5.30;2.00;;;;;;;;;;5052789;28;20217;-61
2021/08/02 08:28:17;;;;;;;2.20;1.83;;;;;;;;;;5053983;28;20470;-61
2021/08/02 08:30:43;;;;;;;3.73;2.30;;;;;;;;;;5054285;28;20221;-60
2021/08/02 08:33:09;;;;;;;2.50;1.90;;;;;;;;;;5053918;28;20209;-61
2021/08/02 08:35:37;;;;;;;3.20;2.27;;;;;;;;;;5049339;28;20507;-61
2021/08/02 08:38:03;;;;;;;4.27;1.57;;;;;;;;;;5034140;28;20206;-60
2021/08/02 08:40:28;;;;;;;3.17;2.13;;;;;;;;;;5048832;28;20480;-60
2021/08/02 08:42:54;;;;;;;5.03;1.97;;;;;;;;;;5051082;28;20553;-61
2021/08/02 08:45:19;;;;;;;4.13;1.40;;;;;;;;;;5041007;28;20359;-60
2021/08/02 08:47:45;;;;;;;3.00;1.80;;;;;;;;;;5035623;28;20210;-60
2021/08/02 08:50:11;;;;;;;3.20;2.00;;;;;;;;;;5031476;28;20581;-60
2021/08/02 08:52:37;;;;;;;2.73;2.03;;;;;;;;;;5048548;28;20464;-60
2021/08/02 08:55:10;;;;;;;3.63;2.17;;;;;;;;;;5051649;28;20724;-60
2021/08/02 08:57:36;;;;;;;2.57;2.37;;;;;;;;;;5051345;28;21126;-60
2021/08/02 09:00:02;;;;;;;5.73;2.97;;;;;;;;;;5052860;28;20462;-60
2021/08/02 09:02:29;;;;;;;4.90;1.87;;;;;;;;;;5052623;28;20247;-61
2021/08/02 09:05:02;;;;;;;2.60;1.77;;;;;;;;;;5042009;28;21027;-61
2021/08/02 09:07:38;;;;;;;2.27;1.80;;;;;;;;;;5053702;28;20463;-60
2021/08/02 09:10:05;;;;;;;6.03;2.67;;;;;;;;;;5047151;28;20480;-61
2021/08/02 09:12:32;;;;;;;3.03;2.20;;;;;;;;;;5032856;28;20770;-60
2021/08/02 09:15:00;;;;;;;3.87;2.23;;;;;;;;;;5036047;28;20556;-61
2021/08/02 09:17:31;;;;;;;3.40;2.30;;;;;;;;;;5036849;28;20535;-60
2021/08/02 09:19:57;;;;;;;5.30;2.13;;;;;;;;;;5036031;28;20487;-60
2021/08/02 09:22:34;;;;;;;3.37;1.90;;;;;;;;;;5035959;28;20956;-61
2021/08/02 09:25:07;;;;;;;2.33;1.83;;;;;;;;;;5035562;28;20220;-60
2021/08/02 09:27:33;;;;;;;2.73;2.00;;;;;;;;;;5035323;28;20984;-62
2021/08/02 09:29:59;;;;;;;2.50;1.70;;;;;;;;;;5037404;28;20515;-60
2021/08/02 09:32:24;;;;;;;13.77;2.60;;;;;;;;;;5037786;28;20268;-61
2021/08/02 09:34:50;;;;;;;2.40;1.67;;;;;;;;;;5036777;28;20788;-60
2021/08/02 09:37:24;;;;;;;3.70;1.90;;;;;;;;;;5052779;28;20624;-60
2021/08/02 09:39:50;;;;;;;3.53;2.20;;;;;;;;;;5055801;28;20217;-61
2021/08/02 09:42:15;;;;;;;4.00;2.30;;;;;;;;;;5057266;28;20533;-60
2021/08/02 09:44:40;;;;;;;3.27;2.13;;;;;;;;;;5057369;28;20213;-60
2021/08/02 09:47:07;;;;;;;4.50;2.47;;;;;;;;;;5045816;28;20233;-61
2021/08/02 09:49:53;;;;;;;2.27;1.80;;;;;;;;;;5043732;28;20217;-60
2021/08/02 09:52:18;;;;;;;2.40;2.00;;;;;;;;;;5056634;28;20519;-60
2021/08/02 09:54:43;;;;;;;6.07;2.50;;;;;;;;;;5057135;28;20457;-60
2021/08/02 09:57:09;;;;;;;3.80;2.63;;;;;;;;;;5055964;28;20645;-60
2021/08/02 09:59:41;;;;;;;1.70;1.60;;;;;;;;;;5056989;28;20221;-61
2021/08/02 10:02:07;;;;;;;3.20;2.70;;;;;;;;;;5056750;28;20258;-61
2021/08/02 10:04:32;;;;;;;3.57;2.20;;;;;;;;;;5057022;28;20484;-61
2021/08/02 10:06:59;;;;;;;1.70;1.47;;;;;;;;;;5056259;28;20550;-61
2021/08/02 10:09:27;;;;;;;2.50;2.20;;;;;;;;;;5055856;28;20288;-61
2021/08/02 10:11:55;;;;;;;2.50;1.93;;;;;;;;;;5056717;28;20467;-60
2021/08/02 10:14:27;;;;;;;2.83;1.77;;;;;;;;;;5039072;28;20447;-61
2021/08/02 10:16:52;;;;;;;2.60;1.50;;;;;;;;;;5056982;28;20552;-61
2021/08/02 10:19:19;;;;;;;2.57;2.30;;;;;;;;;;5055651;28;20924;-60
2021/08/02 10:21:48;;;;;;;2.87;2.00;;;;;;;;;;5039308;28;20642;-60
2021/08/02 10:24:16;;;;;;;5.13;2.37;;;;;;;;;;5056287;28;20486;-61
2021/08/02 10:26:56;;;;;;;2.97;1.70;;;;;;;;;;5055996;28;20451;-61
2021/08/02 10:29:22;;;;;;;2.50;1.90;;;;;;;;;;5056148;28;20459;-61
2021/08/02 10:31:51;;;;;;;2.87;1.90;;;;;;;;;;5055732;28;20466;-60
2021/08/02 10:34:22;;;;;;;2.00;1.80;;;;;;;;;;5056351;28;20233;-60
2021/08/02 10:36:58;;;;;;;2.77;1.90;;;;;;;;;;5068348;28;20459;-60
2021/08/02 10:39:24;;;;;;;3.57;1.90;;;;;;;;;;5063025;28;20514;-61
2021/08/02 10:41:49;;;;;;;4.80;2.47;;;;;;;;;;5056057;28;20554;-60
2021/08/02 10:44:16;;;;;;;2.30;1.87;;;;;;;;;;5055628;28;20205;-60
2021/08/02 10:46:41;;;;;;;3.73;2.03;;;;;;;;;;5048242;28;20214;-61
2021/08/02 10:49:14;;;;;;;4.63;1.90;;;;;;;;;;5034727;28;20457;-62
2021/08/02 10:51:49;;;;;;;4.53;2.30;;;;;;;;;;5054384;28;20220;-60
2021/08/02 10:54:15;;;;;;;2.63;1.80;;;;;;;;;;5055832;28;20451;-60
2021/08/02 10:56:41;;;;;;;2.80;1.70;;;;;;;;;;5055465;28;20593;-59
2021/08/02 10:59:07;;;;;;;6.17;2.50;;;;;;;;;;5055674;28;20459;-60
2021/08/02 11:01:36;;;;;;;2.33;1.67;;;;;;;;;;5055952;28;20459;-60
2021/08/02 11:04:11;;;;;;;3.27;2.20;;;;;;;;;;5055753;28;20235;-60
2021/08/02 11:06:37;;;;;;;2.00;1.80;;;;;;;;;;5056004;28;20451;-60
2021/08/02 11:09:02;;;;;;;3.70;2.13;;;;;;;;;;5055532;28;20467;-60
2021/08/02 11:11:29;;;;;;;6.87;2.37;;;;;;;;;;5055647;28;20541;-59
2021/08/02 11:14:09;;;;;;;2.40;2.03;;;;;;;;;;5055812;28;20681;-60
2021/08/02 11:16:53;;;;;;;4.33;1.90;;;;;;;;;;5055570;28;20597;-60
2021/08/02 11:19:23;;;;;;;7.80;2.07;;;;;;;;;;5055282;28;20455;-59
2021/08/02 11:22:04;;;;;;;2.47;1.90;;;;;;;;;;5055611;28;20451;-60
2021/08/02 11:24:32;;;;;;;6.23;2.00;;;;;;;;;;5055348;28;20466;-59
2021/08/02 11:26:59;;;;;;;2.70;1.63;;;;;;;;;;5055497;28;20459;-60
2021/08/02 11:29:29;;;;;;;3.40;2.00;;;;;;;;;;5055110;28;20455;-60
2021/08/02 11:31:59;;;;;;;3.23;1.73;;;;;;;;;;5055634;28;20618;-60
2021/08/02 11:34:25;;;;;;;2.83;1.70;;;;;;;;;;5055013;28;20459;-60
2021/08/02 11:37:03;;;;;;;2.60;2.27;;;;;;;;;;5042625;28;20453;-60
2021/08/02 11:39:30;;;;;;;3.90;2.10;;;;;;;;;;5047682;28;20794;-59
2021/08/02 11:42:07;;;;;;;2.67;1.87;;;;;;;;;;5055130;28;20460;-60
2021/08/02 11:44:33;;;;;;;3.60;1.67;;;;;;;;;;5054657;28;20443;-60
2021/08/02 11:46:59;;;;;;;3.60;1.80;;;;;;;;;;5053772;28;20490;-60
2021/08/02 11:49:26;;;;;;;2.60;2.13;;;;;;;;;;5053533;28;20489;-60
2021/08/02 11:51:52;;;;;;;3.10;2.43;;;;;;;;;;5055014;28;20463;-59
2021/08/02 11:54:21;;;;;;;5.63;1.90;;;;;;;;;;5054521;28;20475;-60
2021/08/02 11:56:47;;;;;;;2.70;2.17;;;;;;;;;;5054781;28;20245;-60
2021/08/02 11:59:22;;;;;;;2.37;2.17;;;;;;;;;;5054004;28;20460;-60
2021/08/02 12:01:49;;;;;;;3.30;2.23;;;;;;;;;;5054818;28;20467;-60
2021/08/02 12:04:15;;;;;;;5.43;2.00;;;;;;;;;;5054263;28;20517;-61
2021/08/02 12:06:52;;;;;;;3.47;1.93;;;;;;;;;;5054695;28;20451;-59
2021/08/02 12:09:34;;;;;;;4.87;1.90;;;;;;;;;;5053944;28;20505;-60
2021/08/02 12:12:02;;;;;;;4.00;2.33;;;;;;;;;;5053230;28;20791;-60
2021/08/02 12:14:28;;;;;;;2.10;1.90;;;;;;;;;;5054061;28;20455;-61
2021/08/02 12:17:07;;;;;;;3.10;2.13;;;;;;;;;;5053508;28;20947;-61
2021/08/02 12:19:49;;;;;;;3.53;1.90;;;;;;;;;;5053976;28;20459;-60
2021/08/02 12:22:20;;;;;;;3.67;3.27;;;;;;;;;;5053002;28;20529;-60
2021/08/02 12:24:53;;;;;;;4.13;2.83;;;;;;;;;;5053263;28;20455;-60
2021/08/02 12:27:19;;;;;;;3.40;2.30;;;;;;;;;;5053743;28;20495;-59
2021/08/02 12:30:14;;;;;;;1.93;1.73;;;;;;;;;;5054032;28;20491;-60
2021/08/02 12:32:41;;;;;;;3.90;1.97;;;;;;;;;;5033872;28;20540;-60
2021/08/02 12:35:09;;;;;;;4.90;2.20;;;;;;;;;;5034295;28;20491;-60
2021/08/02 12:37:35;;;;;;;2.60;1.80;;;;;;;;;;5051811;28;20955;-59
2021/08/02 12:40:00;;;;;;;2.90;1.67;;;;;;;;;;5043555;28;20459;-59
2021/08/02 12:42:26;;;;;;;6.83;2.07;;;;;;;;;;5044468;28;20815;-59
2021/08/02 12:44:55;;;;;;;2.87;1.90;;;;;;;;;;5037070;28;20221;-59
2021/08/02 12:47:22;;;;;;;7.57;2.27;;;;;;;;;;5037052;28;20222;-60
2021/08/02 12:49:49;;;;;;;2.43;1.90;;;;;;;;;;5033666;28;20452;-59
2021/08/02 12:52:17;;;;;;;2.60;1.77;;;;;;;;;;5031936;28;20453;-59
2021/08/02 12:54:42;;;;;;;4.53;2.20;;;;;;;;;;5031481;28;20491;-59
2021/08/02 12:57:07;;;;;;;3.00;1.70;;;;;;;;;;5033723;28;20996;-59
2021/08/02 12:59:33;;;;;;;2.57;2.10;;;;;;;;;;5033509;28;20229;-59
2021/08/02 13:01:58;;;;;;;3.23;2.30;;;;;;;;;;5033705;28;20225;-59
2021/08/02 13:04:23;;;;;;;3.40;1.80;;;;;;;;;;5033399;28;20220;-59
2021/08/02 13:06:48;;;;;;;4.33;1.83;;;;;;;;;;5033804;28;20217;-59
2021/08/02 13:09:14;;;;;;;6.10;1.57;;;;;;;;;;5033841;28;20237;-60
2021/08/02 13:11:39;;;;;;;4.00;2.10;;;;;;;;;;5033173;28;20275;-60
2021/08/02 13:14:04;;;;;;;2.03;1.40;;;;;;;;;;5033697;28;20312;-60
2021/08/02 13:16:30;;;;;;;2.63;1.80;;;;;;;;;;5033411;28;20229;-59
2021/08/02 13:18:55;;;;;;;3.83;2.00;;;;;;;;;;5039110;28;20224;-60
2021/08/02 13:21:20;;;;;;;4.80;1.93;;;;;;;;;;5033277;28;20657;-60
2021/08/02 13:29:13;;;;;;;2.23;1.40;;;;;;;;;;5053470;28;20560;-58
2021/08/02 13:31:43;;;;;;;2.83;2.23;;;;;;;;;;5051748;28;20495;-59
2021/08/02 13:34:09;;;;;;;3.10;1.80;;;;;;;;;;5053412;28;20237;-58
2021/08/02 13:36:34;;;;;;;2.73;1.67;;;;;;;;;;5052959;28;20557;-59
2021/08/02 13:38:59;;;;;;;5.83;2.10;;;;;;;;;;5051455;28;20563;-60
2021/08/02 13:41:24;;;;;;;5.30;2.20;;;;;;;;;;5051936;28;20217;-59
2021/08/02 13:43:52;;;;;;;2.90;2.10;;;;;;;;;;5053150;28;20651;-60
2021/08/02 13:46:17;;;;;;;3.00;1.83;;;;;;;;;;5058109;28;20208;-60
2021/08/02 13:48:42;;;;;;;2.47;2.03;;;;;;;;;;5073153;28;20786;-60
2021/08/02 13:51:08;;;;;;;2.67;2.17;;;;;;;;;;5073233;28;20665;-59
2021/08/02 13:53:33;;;;;;;4.03;2.10;;;;;;;;;;5072759;28;20223;-59
2021/08/02 13:55:58;;;;;;;2.90;2.53;;;;;;;;;;5073310;28;20628;-59
2021/08/02 13:58:24;;;;;;;3.17;1.83;;;;;;;;;;5072002;28;20355;-59
2021/08/02 14:00:49;;;;;;;4.90;2.07;;;;;;;;;;5073813;28;20569;-59
2021/08/02 14:03:15;;;;;;;2.93;2.00;;;;;;;;;;5077163;28;20220;-59
2021/08/02 14:05:40;;;;;;;3.60;2.00;;;;;;;;;;5076430;28;20227;-60
2021/08/02 14:08:08;;;;;;;4.60;2.30;;;;;;;;;;5077202;28;20212;-60
2021/08/02 14:10:33;;;;;;;2.00;1.70;;;;;;;;;;5076322;28;20243;-58
2021/08/02 14:13:02;;;;;;;3.13;1.80;;;;;;;;;;5075599;28;20455;-59
2021/08/02 14:15:33;;;;;;;4.53;1.77;;;;;;;;;;5076275;28;20220;-59
2021/08/02 14:18:05;;;;;;;3.50;1.60;;;;;;;;;;5075897;28;20473;-59
2021/08/02 14:20:32;;;;;;;2.57;1.73;;;;;;;;;;5076201;28;20469;-59
2021/08/02 14:22:58;;;;;;;2.83;2.07;;;;;;;;;;5068259;28;20951;-62
2021/08/02 14:25:24;;;;;;;3.60;1.83;;;;;;;;;;5056258;28;20448;-62
2021/08/02 14:27:50;;;;;;;2.40;2.13;;;;;;;;;;5056678;28;20448;-59
2021/08/02 14:30:15;;;;;;;2.60;2.00;;;;;;;;;;5056599;28;20459;-58
2021/08/02 14:32:41;;;;;;;2.40;2.20;;;;;;;;;;5056188;28;20521;-60
2021/08/02 14:35:07;;;;;;;3.67;2.10;;;;;;;;;;5056501;28;20594;-58
2021/08/02 14:37:33;;;;;;;2.57;1.93;;;;;;;;;;5073036;28;20454;-61
2021/08/02 14:39:59;;;;;;;3.43;2.43;;;;;;;;;;5057393;28;20228;-59
2021/08/02 14:42:28;;;;;;;4.27;2.27;;;;;;;;;;5056194;28;20778;-60
2021/08/02 14:44:59;;;;;;;2.93;1.83;;;;;;;;;;5043661;28;21302;-59
2021/08/02 14:47:29;;;;;;;4.37;3.07;;;;;;;;;;5063981;28;20785;-60
2021/08/02 14:50:03;;;;;;;3.40;2.20;;;;;;;;;;5075869;28;20455;-60